Time;durP1;ratioP1;P1;durP2;ratioP2;P2;SDS_P1;SDS_P2;PMS_P1;PMS_P2;Temp;Humidity;BMP_temperature;BMP_pressure;BME280_temperature;BME280_humidity;BME280_pressure;Samples;Min_cycle;Max_cycle;Signal;HPM_P1;HPM_P2
2021/12/25 00:00:08;;;;;;;13.27;11.93;;;;;;;21.61;25.04;94749.47;4900125;28;102653;-47
2021/12/25 00:02:34;;;;;;;13.80;12.60;;;;;;;21.61;24.78;94757.47;4894820;28;102843;-47
2021/12/25 00:05:00;;;;;;;13.83;12.50;;;;;;;21.60;25.08;94762.00;4900799;28;102111;-47
2021/12/25 00:07:26;;;;;;;12.63;11.43;;;;;;;21.61;24.96;94758.25;4900698;28;102748;-47
2021/12/25 00:09:51;;;;;;;12.00;10.97;;;;;;;21.60;24.95;94767.31;4900687;28;104032;-47
2021/12/25 00:12:17;;;;;;;12.97;11.83;;;;;;;21.59;25.05;94755.09;4901020;28;103483;-47
2021/12/25 00:14:42;;;;;;;13.00;11.70;;;;;;;21.59;24.98;94754.31;4877265;28;103201;-47
2021/12/25 00:17:08;;;;;;;11.57;10.60;;;;;;;21.57;25.01;94762.59;4920703;28;103287;-47
2021/12/25 00:19:34;;;;;;;12.30;11.20;;;;;;;21.58;24.93;94758.06;4919110;28;102886;-47
2021/12/25 00:22:00;;;;;;;12.10;11.10;;;;;;;21.57;25.09;94759.94;4919981;28;103870;-47
2021/12/25 00:24:26;;;;;;;12.60;11.50;;;;;;;21.56;24.86;94769.00;4915006;28;103759;-47
2021/12/25 00:29:54;;;;;;;12.27;11.20;;;;;;;21.57;24.86;94775.13;4918880;28;103003;-47
2021/12/25 00:34:37;;;;;;;11.63;10.63;;;;;;;21.55;24.95;94771.97;4916864;28;103864;-47
2021/12/25 00:37:04;;;;;;;12.23;11.03;;;;;;;21.56;25.02;94784.97;4915731;28;104449;-48
2021/12/25 00:39:30;;;;;;;11.37;10.37;;;;;;;21.55;24.92;94778.06;4918014;28;102799;-47
2021/12/25 00:41:56;;;;;;;11.97;10.77;;;;;;;21.57;24.94;94772.44;4918467;28;104592;-47
2021/12/25 00:44:22;;;;;;;11.63;10.53;;;;;;;21.56;25.15;94770.88;4918609;28;102649;-47
2021/12/25 00:46:48;;;;;;;11.27;10.17;;;;;;;21.55;25.00;94774.63;4914548;28;102716;-47
2021/12/25 00:49:13;;;;;;;12.30;11.13;;;;;;;21.56;24.93;94787.63;4919044;28;102638;-46
2021/12/25 00:51:39;;;;;;;11.67;10.67;;;;;;;21.56;25.26;94774.31;4901883;28;103349;-47
2021/12/25 00:54:04;;;;;;;12.33;11.27;;;;;;;21.54;25.20;94773.84;4918475;28;102864;-47
2021/12/25 00:56:30;;;;;;;11.60;10.50;;;;;;;21.54;25.04;94786.34;4918830;28;102841;-47
2021/12/25 00:58:55;;;;;;;10.60;9.70;;;;;;;21.54;25.06;94770.41;4913700;28;103816;-47
2021/12/25 01:01:21;;;;;;;11.07;9.97;;;;;;;21.56;25.15;94762.91;4921722;28;102757;-47
2021/12/25 01:03:48;;;;;;;10.90;10.00;;;;;;;21.53;25.11;94771.50;4921262;28;102757;-47
2021/12/25 01:06:14;;;;;;;11.13;10.13;;;;;;;21.53;25.31;94774.94;4922183;28;102826;-47
2021/12/25 01:08:39;;;;;;;10.80;9.87;;;;;;;21.53;25.17;94774.94;4917763;28;102946;-47
2021/12/25 01:11:05;;;;;;;10.97;9.97;;;;;;;21.54;25.21;94767.75;4922141;28;103384;-47
2021/12/25 01:13:37;;;;;;;11.07;10.10;;;;;;;21.54;25.04;94765.09;4921902;28;102780;-47
2021/12/25 01:19:03;;;;;;;10.30;9.40;;;;;;;21.54;25.27;94765.09;4899288;28;103493;-47
2021/12/25 01:24:13;;;;;;;10.37;9.37;;;;;;;21.54;25.19;94751.78;4903052;28;102722;-47
2021/12/25 01:29:32;;;;;;;10.17;9.27;;;;;;;21.54;25.12;94752.59;4899144;28;103076;-47
2021/12/25 01:48:16;;;;;;;10.07;9.17;;;;;;;21.52;25.09;94748.66;4903349;28;102688;-47
2021/12/25 01:50:41;;;;;;;10.10;9.20;;;;;;;21.50;25.21;94754.28;4902311;28;103144;-47
2021/12/25 01:53:07;;;;;;;9.07;8.27;;;;;;;21.51;25.39;94749.75;4897585;28;102888;-47
2021/12/25 01:55:32;;;;;;;9.07;8.27;;;;;;;21.50;24.91;94756.94;4902354;28;102718;-47
2021/12/25 01:58:01;;;;;;;9.77;8.80;;;;;;;21.50;25.10;94756.13;4902549;28;102778;-47
2021/12/25 02:00:35;;;;;;;9.07;8.27;;;;;;;21.49;25.13;94755.34;4903025;28;102957;-47
2021/12/25 02:03:04;;;;;;;8.87;8.10;;;;;;;21.49;25.02;94743.91;4898340;28;102733;-47
2021/12/25 02:05:29;;;;;;;9.33;8.53;;;;;;;21.48;25.61;94742.34;4901633;28;102656;-47
2021/12/25 02:07:55;;;;;;;9.53;8.70;;;;;;;21.48;25.05;94752.97;4902736;28;102762;-47
2021/12/25 02:10:21;;;;;;;9.30;8.50;;;;;;;21.48;25.12;94732.50;4902386;28;103454;-46
2021/12/25 02:12:47;;;;;;;9.33;8.57;;;;;;;21.48;25.19;94731.72;4884183;28;102785;-47
2021/12/25 02:15:16;;;;;;;9.00;8.30;;;;;;;21.44;25.26;94738.75;4900746;28;102883;-47
2021/12/25 02:20:35;;;;;;;9.20;8.43;;;;;;;21.48;25.05;94737.81;4905677;28;102794;-47
2021/12/25 02:23:10;;;;;;;10.07;9.17;;;;;;;21.47;25.13;94730.16;4921333;28;102791;-47
2021/12/25 02:25:36;;;;;;;9.30;8.50;;;;;;;21.47;25.19;94730.16;4916403;28;102810;-47
2021/12/25 02:28:04;;;;;;;8.40;7.70;;;;;;;21.47;25.15;94724.84;4922023;28;103384;-47
2021/12/25 02:30:30;;;;;;;9.57;8.70;;;;;;;21.45;25.18;94727.00;4920042;28;103455;-47
2021/12/25 02:32:58;;;;;;;9.60;8.80;;;;;;;21.44;25.17;94720.13;4921529;28;103162;-47
2021/12/25 02:35:25;;;;;;;8.37;7.63;;;;;;;21.44;25.21;94742.19;4920158;28;102799;-47
2021/12/25 02:37:52;;;;;;;9.40;8.50;;;;;;;21.43;25.19;94734.50;4914699;28;103317;-47
2021/12/25 02:40:17;;;;;;;8.83;8.13;;;;;;;21.45;25.16;94735.00;4920948;28;102725;-46
2021/12/25 02:42:43;;;;;;;9.50;8.60;;;;;;;21.45;25.16;94733.13;4921178;28;102831;-46
2021/12/25 02:45:15;;;;;;;9.53;8.73;;;;;;;21.45;25.08;94735.00;4920381;28;103283;-47
2021/12/25 02:47:43;;;;;;;9.73;8.83;;;;;;;21.44;25.22;94728.09;4915308;28;102803;-47
2021/12/25 02:50:09;;;;;;;8.70;7.90;;;;;;;21.44;25.14;94731.53;4920690;28;102748;-47
2021/12/25 02:52:35;;;;;;;9.53;8.70;;;;;;;21.43;25.19;94740.59;4920732;28;102873;-47
2021/12/25 02:55:01;;;;;;;8.80;8.10;;;;;;;21.43;25.22;94731.84;4920040;28;102618;-47
2021/12/25 02:57:27;;;;;;;8.60;7.90;;;;;;;21.46;25.24;94733.91;4920476;28;102770;-47
2021/12/25 02:59:52;;;;;;;10.00;9.07;;;;;;;21.46;25.12;94726.72;4914368;28;103130;-47
2021/12/25 03:02:18;;;;;;;8.63;7.93;;;;;;;21.48;25.30;94726.41;4921110;28;102667;-47
2021/12/25 03:04:48;;;;;;;9.53;8.73;;;;;;;21.48;25.07;94731.72;4920917;28;102698;-47
2021/12/25 03:07:14;;;;;;;8.60;7.80;;;;;;;21.46;25.26;94728.59;4920938;28;102825;-47
2021/12/25 03:09:41;;;;;;;9.87;8.97;;;;;;;21.47;25.33;94730.16;4913989;28;102684;-47
2021/12/25 03:12:09;;;;;;;9.20;8.40;;;;;;;21.48;25.23;94734.38;4920237;28;102904;-47
2021/12/25 03:14:39;;;;;;;9.77;8.87;;;;;;;21.46;25.08;94726.72;4919986;28;103840;-47
2021/12/25 03:17:05;;;;;;;10.73;9.67;;;;;;;21.47;25.00;94730.16;4900843;28;102755;-47
2021/12/25 03:19:34;;;;;;;9.77;8.87;;;;;;;21.47;25.08;94722.19;4899485;28;104547;-47
2021/12/25 03:22:01;;;;;;;9.63;8.63;;;;;;;21.47;25.07;94722.97;4895387;28;103602;-47
2021/12/25 03:24:28;;;;;;;9.90;9.00;;;;;;;21.48;25.17;94723.75;4900135;28;103003;-47
2021/12/25 03:26:56;;;;;;;9.93;9.13;;;;;;;21.47;25.13;94730.16;4901618;28;102707;-47
2021/12/25 03:29:25;;;;;;;10.80;9.27;;;;;;;21.48;25.32;94745.00;4900814;28;102637;-47
2021/12/25 03:31:51;;;;;;;10.30;9.40;;;;;;;21.48;25.23;94732.50;4895431;28;104186;-47
2021/12/25 03:34:17;;;;;;;9.83;9.03;;;;;;;21.48;25.32;94732.50;4899589;28;102836;-47
2021/12/25 03:36:43;;;;;;;9.73;8.83;;;;;;;21.47;25.05;94724.84;4901326;28;102800;-47
2021/12/25 03:39:09;;;;;;;9.50;8.70;;;;;;;21.48;25.64;94726.41;4900967;28;103267;-47
2021/12/25 03:41:35;;;;;;;9.50;8.70;;;;;;;21.49;25.12;94728.75;4899225;28;103864;-47
2021/12/25 03:44:02;;;;;;;9.60;8.80;;;;;;;21.48;25.11;94727.19;4895559;28;102710;-47
2021/12/25 03:46:31;;;;;;;11.40;10.40;;;;;;;21.49;25.25;94733.28;4900835;28;102881;-47
2021/12/25 03:49:07;;;;;;;9.83;9.03;;;;;;;21.48;25.20;94729.84;4899569;28;102786;-47
2021/12/25 03:59:53;;;;;;;9.93;9.03;;;;;;;21.49;25.24;94728.75;4900113;28;103055;-47
2021/12/25 04:02:24;;;;;;;10.70;9.70;;;;;;;21.50;25.25;94742.84;4900202;28;103659;-47
2021/12/25 04:04:50;;;;;;;11.10;10.10;;;;;;;21.49;25.25;94733.28;4894507;28;103094;-47
2021/12/25 04:07:49;;;;;;;9.97;9.07;;;;;;;21.50;25.21;94726.88;4900621;28;102821;-47
2021/12/25 04:10:10;;;;;;;10.20;9.30;;;;;;;21.48;25.33;94748.44;4899997;28;102678;-46
2021/12/25 04:12:36;;;;;;;9.73;8.83;;;;;;;21.49;25.13;94749.25;4899718;28;103405;-47
2021/12/25 04:15:01;;;;;;;10.10;9.20;;;;;;;21.48;25.49;94752.97;4898118;28;102846;-47
2021/12/25 04:17:27;;;;;;;10.60;9.70;;;;;;;21.48;25.24;94745.00;4919631;28;102834;-47
2021/12/25 04:19:52;;;;;;;10.30;9.40;;;;;;;21.48;25.30;94745.00;4919338;28;102601;-47
2021/12/25 04:22:26;;;;;;;10.23;9.43;;;;;;;21.48;25.26;94747.66;4919795;28;102753;-47
2021/12/25 04:24:52;;;;;;;10.57;9.50;;;;;;;21.47;25.33;94743.44;4918680;28;102984;-47
2021/12/25 04:27:18;;;;;;;10.30;9.37;;;;;;;21.46;25.16;94742.66;4900214;28;102890;-47
2021/12/25 05:04:25;;;;;;;9.93;9.10;;;;;;;21.44;25.20;94789.22;4918935;28;102835;-47
2021/12/25 05:06:51;;;;;;;10.27;9.30;;;;;;;21.42;25.38;94786.09;4918944;28;103026;-47
2021/12/25 05:09:17;;;;;;;9.77;8.90;;;;;;;21.43;25.27;94782.34;4919357;28;102662;-47
2021/12/25 05:11:43;;;;;;;10.37;9.37;;;;;;;21.43;25.29;94783.13;4914484;28;102890;-47
2021/12/25 05:14:09;;;;;;;9.33;8.53;;;;;;;21.41;25.63;94774.69;4919145;28;102657;-47
2021/12/25 05:16:34;;;;;;;10.40;9.13;;;;;;;21.41;25.29;94779.22;4901215;28;103811;-47
2021/12/25 05:19:00;;;;;;;9.97;9.17;;;;;;;21.40;25.41;94778.44;4899452;28;102908;-47
2021/12/25 05:21:26;;;;;;;9.50;8.70;;;;;;;21.40;25.41;94774.97;4892780;28;103244;-47
2021/12/25 05:23:52;;;;;;;9.50;8.70;;;;;;;21.39;25.46;94778.72;4900094;28;104285;-47
2021/12/25 05:26:17;;;;;;;9.20;8.40;;;;;;;21.40;25.43;94785.63;4898654;28;103150;-47
2021/12/25 05:28:45;;;;;;;9.70;8.90;;;;;;;21.40;25.36;94780.28;4899847;28;102896;-47
2021/12/25 05:31:13;;;;;;;9.43;8.70;;;;;;;21.37;25.54;94787.00;4899549;28;102689;-47
2021/12/25 05:33:41;;;;;;;9.83;8.97;;;;;;;21.38;25.43;94801.06;4893660;28;103493;-47
2021/12/25 05:36:07;;;;;;;9.33;8.53;;;;;;;21.38;25.41;94793.09;4899037;28;104732;-47
2021/12/25 05:38:34;;;;;;;9.77;8.97;;;;;;;21.39;25.29;94787.47;4899357;28;102791;-47
2021/12/25 05:41:00;;;;;;;9.40;8.60;;;;;;;21.39;25.60;94782.16;4899124;28;103425;-47
2021/12/25 05:43:26;;;;;;;9.40;8.60;;;;;;;21.39;25.51;94792.00;4894382;28;102708;-47
2021/12/25 05:45:52;;;;;;;9.57;8.77;;;;;;;21.38;25.38;94787.78;4899785;28;102812;-47
2021/12/25 05:48:18;;;;;;;9.87;8.97;;;;;;;21.38;25.48;94787.78;4889482;28;102985;-47
2021/12/25 05:50:43;;;;;;;8.40;7.70;;;;;;;21.39;25.69;94794.66;4899757;28;102667;-47
2021/12/25 05:53:09;;;;;;;8.20;7.50;;;;;;;21.39;25.49;94794.66;4902552;28;103329;-47
2021/12/25 05:55:35;;;;;;;9.20;8.40;;;;;;;21.38;25.37;94790.44;4896127;28;102970;-47
2021/12/25 05:58:03;;;;;;;9.20;8.30;;;;;;;21.38;25.28;94803.72;4903311;28;103465;-47
2021/12/25 06:00:30;;;;;;;9.10;8.40;;;;;;;21.37;25.25;94823.41;4901324;28;102784;-47
2021/12/25 06:02:57;;;;;;;8.77;8.03;;;;;;;21.37;25.52;94826.09;4902236;28;103449;-47
2021/12/25 06:05:23;;;;;;;9.37;8.57;;;;;;;21.39;25.46;94826.56;4897025;28;102891;-47
2021/12/25 06:07:48;;;;;;;8.60;7.90;;;;;;;21.37;25.37;94821.56;4902738;28;103281;-47
2021/12/25 06:10:14;;;;;;;9.80;8.90;;;;;;;21.36;25.61;94825.28;4901866;28;103492;-47
2021/12/25 06:12:42;;;;;;;8.93;8.23;;;;;;;21.37;25.54;94826.09;4901316;28;102770;-47
2021/12/25 06:15:11;;;;;;;9.57;8.73;;;;;;;21.36;25.59;94814.66;4905440;28;103000;-47
2021/12/25 06:17:37;;;;;;;9.93;9.13;;;;;;;21.38;25.59;94807.19;4915052;28;103468;-47
2021/12/25 06:20:04;;;;;;;9.87;8.97;;;;;;;21.38;25.54;94807.19;4920828;28;102712;-47
2021/12/25 06:22:29;;;;;;;9.40;8.60;;;;;;;21.37;25.51;94810.13;4921109;28;102773;-47
2021/12/25 06:24:55;;;;;;;9.50;8.63;;;;;;;21.38;25.55;94817.03;4921008;28;102795;-47
2021/12/25 06:27:21;;;;;;;9.10;8.40;;;;;;;21.38;25.51;94815.16;4917253;28;103846;-47
2021/12/25 06:29:48;;;;;;;10.30;9.30;;;;;;;21.37;25.84;94810.13;4919962;28;102776;-47
2021/12/25 06:32:14;;;;;;;9.67;8.80;;;;;;;21.38;25.41;94812.50;4920659;28;103320;-47
2021/12/25 06:34:40;;;;;;;10.13;9.23;;;;;;;21.41;25.50;94819.06;4921255;28;102752;-47
2021/12/25 06:37:05;;;;;;;9.27;8.47;;;;;;;21.39;25.47;94815.94;4919549;28;102681;-47
2021/12/25 06:39:31;;;;;;;9.67;8.77;;;;;;;21.40;25.64;94822.81;4915164;28;102671;-47
2021/12/25 06:41:58;;;;;;;9.93;9.13;;;;;;;21.40;25.60;94822.81;4919872;28;102829;-47
2021/12/25 06:44:25;;;;;;;9.93;9.13;;;;;;;21.41;25.67;94827.03;4921278;28;102650;-47
2021/12/25 06:46:51;;;;;;;9.87;9.03;;;;;;;21.39;25.49;94811.41;4919856;28;102938;-47
2021/12/25 06:49:18;;;;;;;10.70;9.70;;;;;;;21.39;25.65;94823.91;4916058;28;102867;-47
2021/12/25 06:51:44;;;;;;;10.23;9.40;;;;;;;21.41;25.63;94840.34;4920652;28;102716;-47
2021/12/25 06:54:09;;;;;;;10.07;9.20;;;;;;;21.41;25.38;94835.81;4920851;28;103763;-47
2021/12/25 06:56:35;;;;;;;10.27;9.37;;;;;;;21.41;25.57;94838.47;4920838;28;103158;-47
2021/12/25 06:59:00;;;;;;;9.97;9.17;;;;;;;21.42;25.38;94842.69;4919648;28;103362;-47
2021/12/25 07:01:26;;;;;;;10.67;9.67;;;;;;;21.42;25.55;94833.94;4915419;28;103061;-46
2021/12/25 07:03:51;;;;;;;10.33;9.43;;;;;;;21.43;25.57;94838.94;4921161;28;102754;-47
2021/12/25 07:06:17;;;;;;;10.87;9.87;;;;;;;21.44;25.40;94842.38;4921672;28;102748;-47
2021/12/25 07:08:42;;;;;;;10.57;9.77;;;;;;;21.45;25.44;94847.41;4920302;28;103280;-47
2021/12/25 07:11:08;;;;;;;11.03;10.13;;;;;;;21.47;25.59;94857.72;4919145;28;103124;-47
2021/12/25 07:13:34;;;;;;;10.80;9.90;;;;;;;21.51;25.35;94864.81;4917548;28;102724;-47
2021/12/25 07:15:59;;;;;;;10.50;9.70;;;;;;;21.99;25.06;94864.25;4910994;28;103004;-47
2021/12/25 07:18:25;;;;;;;10.77;9.87;;;;;;;22.06;24.81;94867.31;4900204;28;102990;-47
2021/12/25 07:20:51;;;;;;;10.27;9.47;;;;;;;21.83;25.03;94871.00;4901562;28;103493;-47
2021/12/25 07:23:18;;;;;;;11.30;10.30;;;;;;;21.73;25.16;94866.72;4895245;28;102793;-47
2021/12/25 07:25:44;;;;;;;12.27;11.27;;;;;;;21.73;25.25;94850.78;4901020;28;103339;-46
2021/12/25 07:28:10;;;;;;;11.77;10.77;;;;;;;21.79;25.29;94854.88;4901378;28;103206;-46
2021/12/25 07:30:36;;;;;;;12.47;11.37;;;;;;;21.86;25.11;94844.63;4900520;28;102742;-47
2021/12/25 07:33:02;;;;;;;12.40;11.30;;;;;;;21.86;25.32;94846.50;4901307;28;102811;-47
2021/12/25 07:35:28;;;;;;;12.40;11.40;;;;;;;21.89;25.36;94851.97;4896888;28;104541;-47
2021/12/25 07:37:54;;;;;;;13.63;12.43;;;;;;;21.91;25.12;94871.09;4900742;28;102698;-48
2021/12/25 07:40:20;;;;;;;13.70;12.50;;;;;;;22.03;25.17;94864.44;4901395;28;102786;-47
2021/12/25 07:42:45;;;;;;;13.53;12.43;;;;;;;22.00;25.19;94863.16;4900807;28;102730;-47
2021/12/25 07:45:11;;;;;;;13.03;11.93;;;;;;;;;;4896208;28;102898;-47
2021/12/25 07:47:41;;;;;;;12.10;11.10;;;;;;;21.98;25.32;94880.50;4900978;28;102999;-47
2021/12/25 07:50:09;;;;;;;12.67;11.57;;;;;;;21.91;25.19;94873.75;4898514;28;105034;-47
2021/12/25 07:52:35;;;;;;;14.23;13.03;;;;;;;21.87;25.12;94872.00;4900355;28;102820;-47
2021/12/25 07:55:00;;;;;;;14.83;13.53;;;;;;;21.85;25.47;94874.19;4901359;28;102837;-47
2021/12/25 07:57:26;;;;;;;14.13;12.83;;;;;;;21.86;25.19;94876.53;4895929;28;103791;-47
2021/12/25 07:59:51;;;;;;;14.00;12.70;;;;;;;21.92;25.47;94875.31;4900631;28;102734;-47
2021/12/25 08:02:17;;;;;;;13.17;12.07;;;;;;;21.93;25.27;94882.22;4901149;28;102725;-47
2021/12/25 08:04:42;;;;;;;12.87;11.83;;;;;;;21.90;25.24;94888.13;4901070;28;103142;-47
2021/12/25 08:07:08;;;;;;;13.30;12.20;;;;;;;21.89;25.49;94883.13;4894891;28;103316;-47
2021/12/25 08:09:35;;;;;;;12.73;11.63;;;;;;;21.92;25.33;94880.63;4899226;28;103548;-47
2021/12/25 08:12:02;;;;;;;12.87;11.77;;;;;;;21.98;25.12;94875.97;4900395;28;102723;-47
2021/12/25 08:14:30;;;;;;;12.77;11.67;;;;;;;21.99;25.42;94869.56;4900979;28;102918;-47
2021/12/25 08:16:58;;;;;;;13.23;12.10;;;;;;;21.99;25.47;94869.56;4916350;28;103567;-47
2021/12/25 08:19:24;;;;;;;12.50;11.40;;;;;;;22.05;25.39;94879.03;4912792;28;103432;-47
2021/12/25 08:21:50;;;;;;;12.33;11.20;;;;;;;22.10;25.39;94875.47;4920021;28;103362;-47
2021/12/25 08:24:16;;;;;;;12.23;11.17;;;;;;;22.14;25.29;94881.75;4920001;28;102633;-47
2021/12/25 08:26:42;;;;;;;11.97;10.87;;;;;;;22.15;25.10;94883.31;4920109;28;103365;-47
2021/12/25 08:29:08;;;;;;;12.17;11.17;;;;;;;22.18;25.25;94880.84;4914256;28;102746;-46
2021/12/25 08:31:34;;;;;;;11.93;10.93;;;;;;;22.21;25.19;94871.47;4917819;28;102992;-46
2021/12/25 08:33:59;;;;;;;11.50;10.40;;;;;;;22.22;24.90;94878.38;4902573;28;102833;-47
2021/12/25 08:36:25;;;;;;;11.60;10.60;;;;;;;22.24;25.03;94870.88;4920051;28;102750;-47
2021/12/25 08:38:50;;;;;;;12.93;11.80;;;;;;;22.19;25.32;94869.13;4919165;28;103246;-47
2021/12/25 08:41:16;;;;;;;11.03;10.10;;;;;;;22.20;25.05;94872.56;4914085;28;102866;-47
2021/12/25 08:43:49;;;;;;;11.50;10.53;;;;;;;22.22;25.26;94878.38;4918661;28;103393;-47
2021/12/25 08:46:19;;;;;;;10.90;10.00;;;;;;;22.19;25.25;94869.13;4918817;28;103009;-47
2021/12/25 08:48:46;;;;;;;10.47;9.57;;;;;;;22.24;25.21;94870.06;4919712;28;103901;-47
2021/12/25 08:51:14;;;;;;;10.73;9.83;;;;;;;22.24;25.25;94875.41;4914053;28;103220;-47
2021/12/25 08:53:39;;;;;;;10.90;10.00;;;;;;;22.23;25.27;94871.16;4919528;28;103142;-47
2021/12/25 08:56:05;;;;;;;10.67;9.77;;;;;;;22.23;25.29;94863.97;4918759;28;102798;-47
2021/12/25 08:58:31;;;;;;;11.50;10.50;;;;;;;22.20;25.13;94864.59;4919921;28;103683;-47
2021/12/25 09:01:01;;;;;;;10.37;9.57;;;;;;;22.19;25.36;94852.38;4917570;28;103925;-46
2021/12/25 09:03:29;;;;;;;9.43;8.63;;;;;;;22.17;25.26;94857.19;4913992;28;102791;-47
2021/12/25 09:05:56;;;;;;;10.67;9.77;;;;;;;22.14;25.43;94849.81;4919194;28;103059;-48
2021/12/25 09:08:23;;;;;;;10.13;9.33;;;;;;;22.18;25.46;94845.47;4919561;28;103226;-46
2021/12/25 09:10:49;;;;;;;9.43;8.67;;;;;;;22.18;25.39;94842.81;4918093;28;102877;-46
2021/12/25 09:13:14;;;;;;;10.07;9.17;;;;;;;22.19;25.37;94839.84;4914367;28;102898;-47
2021/12/25 09:15:40;;;;;;;10.00;9.20;;;;;;;22.21;25.33;94839.53;4911335;28;103009;-47
2021/12/25 09:18:05;;;;;;;9.47;8.70;;;;;;;22.20;25.20;94835.31;4899784;28;102943;-47
2021/12/25 09:20:31;;;;;;;10.60;9.70;;;;;;;22.25;25.25;94839.72;4899125;28;102700;-47
2021/12/25 09:22:57;;;;;;;10.00;9.10;;;;;;;22.25;25.38;94827.19;4903019;28;102883;-47
2021/12/25 09:25:24;;;;;;;9.50;8.70;;;;;;;22.26;25.29;94834.09;4897988;28;104280;-47
2021/12/25 09:27:50;;;;;;;8.83;8.13;;;;;;;22.29;25.27;94814.84;4903751;28;103445;-47
2021/12/25 09:30:16;;;;;;;9.10;8.40;;;;;;;22.30;25.47;94813.75;4901245;28;102874;-47
2021/12/25 09:32:42;;;;;;;9.03;8.33;;;;;;;22.35;25.52;94815.50;4901722;28;103314;-47
2021/12/25 09:35:08;;;;;;;9.60;8.80;;;;;;;22.32;25.36;94816.88;4897868;28;102928;-47
2021/12/25 09:37:34;;;;;;;8.47;7.77;;;;;;;22.32;25.41;94808.13;4902747;28;102872;-47
2021/12/25 09:40:00;;;;;;;9.63;8.90;;;;;;;22.27;25.50;94803.72;4902690;28;102711;-47
2021/12/25 09:42:26;;;;;;;9.60;8.80;;;;;;;22.28;25.34;94797.31;4903499;28;102613;-47
2021/12/25 09:44:53;;;;;;;8.97;8.17;;;;;;;22.34;25.45;94796.09;4901762;28;104416;-47
2021/12/25 09:47:18;;;;;;;9.07;8.37;;;;;;;22.38;25.26;94797.03;4897132;28;102812;-47
2021/12/25 09:49:44;;;;;;;10.10;9.23;;;;;;;22.41;25.44;94793.75;4902981;28;103163;-47
2021/12/25 09:52:10;;;;;;;9.00;8.20;;;;;;;22.47;25.21;94800.50;4902887;28;102849;-47
2021/12/25 09:54:35;;;;;;;8.83;8.10;;;;;;;22.49;25.12;94803.66;4902895;28;103004;-47
2021/12/25 09:57:01;;;;;;;9.70;8.93;;;;;;;22.50;25.39;94797.22;4897930;28;104264;-47
2021/12/25 09:59:26;;;;;;;8.80;8.10;;;;;;;22.52;25.13;94787.09;4884408;28;102671;-47
2021/12/25 10:01:56;;;;;;;9.57;8.77;;;;;;;22.52;25.04;94780.97;4903206;28;102671;-47
2021/12/25 10:04:37;;;;;;;8.90;8.20;;;;;;;22.52;25.55;94773.78;4902572;28;103043;-47
2021/12/25 10:07:15;;;;;;;9.13;8.33;;;;;;;22.54;25.23;94772.69;4902317;28;103519;-47
2021/12/25 10:09:40;;;;;;;8.87;8.10;;;;;;;22.55;25.27;94769.72;4895809;28;102701;-47
2021/12/25 10:12:12;;;;;;;9.13;8.43;;;;;;;22.57;25.25;94780.81;4901473;28;102687;-47
2021/12/25 10:14:40;;;;;;;9.00;8.10;;;;;;;22.57;25.07;94778.16;4900294;28;102847;-47
2021/12/25 10:17:24;;;;;;;8.73;8.03;;;;;;;22.56;25.32;94776.59;4921879;28;103352;-47
2021/12/25 10:20:11;;;;;;;8.37;7.67;;;;;;;22.56;25.15;94778.47;4916270;28;102906;-47
2021/12/25 10:23:11;;;;;;;8.90;8.17;;;;;;;22.57;25.34;94774.72;4922305;28;104128;-47
2021/12/25 10:25:58;;;;;;;8.70;8.00;;;;;;;22.57;25.52;94766.72;4922204;28;103078;-47
2021/12/25 10:28:49;;;;;;;9.10;8.30;;;;;;;22.58;25.21;94763.75;4921499;28;102777;-46
2021/12/25 10:31:16;;;;;;;8.87;8.17;;;;;;;22.58;25.37;94769.09;4911722;28;103096;-47
2021/12/25 10:33:53;;;;;;;8.40;7.70;;;;;;;22.58;25.55;94757.66;4921117;28;102865;-47
2021/12/25 10:36:27;;;;;;;8.03;7.43;;;;;;;22.59;25.41;94752.00;4920793;28;103700;-47
2021/12/25 10:39:12;;;;;;;9.33;8.43;;;;;;;22.59;25.45;94751.22;4920952;28;102888;-47
2021/12/25 10:41:41;;;;;;;8.57;7.77;;;;;;;22.55;25.46;94747.63;4915177;28;103008;-47
2021/12/25 10:44:20;;;;;;;8.20;7.50;;;;;;;22.57;25.42;94745.44;4920926;28;102647;-47
2021/12/25 10:46:52;;;;;;;8.83;8.13;;;;;;;22.56;25.29;94739.31;4921412;28;103562;-47
2021/12/25 10:49:18;;;;;;;7.60;6.97;;;;;;;22.58;25.63;94736.34;4921114;28;102662;-47
2021/12/25 10:51:44;;;;;;;8.30;7.60;;;;;;;22.57;25.29;94727.56;4916308;28;103035;-47
2021/12/25 10:54:13;;;;;;;8.00;7.30;;;;;;;22.56;25.32;94731.34;4921538;28;103427;-47
2021/12/25 10:56:42;;;;;;;8.43;7.73;;;;;;;22.57;25.49;94727.56;4921223;28;102953;-47
2021/12/25 10:59:11;;;;;;;7.90;7.30;;;;;;;22.57;25.34;94735.56;4903078;28;103626;-47
2021/12/25 11:01:47;;;;;;;8.40;7.70;;;;;;;22.57;25.53;94724.13;4920685;28;103452;-47
2021/12/25 11:04:29;;;;;;;8.20;7.53;;;;;;;22.57;25.53;94721.47;4917735;28;103739;-47
2021/12/25 11:06:57;;;;;;;8.07;7.47;;;;;;;22.57;25.38;94724.91;4920396;28;103959;-47
2021/12/25 11:09:23;;;;;;;8.77;8.07;;;;;;;22.55;25.63;94721.00;4903414;28;103311;-47
2021/12/25 11:12:21;;;;;;;8.43;7.63;;;;;;;22.57;25.32;94721.47;4920945;28;102803;-47
2021/12/25 11:14:48;;;;;;;8.67;7.87;;;;;;;22.58;25.28;94717.72;4915048;28;102663;-47
2021/12/25 11:17:25;;;;;;;8.67;7.97;;;;;;;22.56;25.37;94704.72;4901502;28;103220;-47
2021/12/25 11:20:01;;;;;;;8.20;7.57;;;;;;;22.56;25.56;94704.72;4900434;28;104147;-47
2021/12/25 11:22:45;;;;;;;8.83;8.13;;;;;;;22.56;25.52;94695.94;4901151;28;102875;-47
2021/12/25 11:25:11;;;;;;;9.00;8.20;;;;;;;22.55;25.47;94703.16;4897297;28;103270;-47
2021/12/25 11:27:36;;;;;;;9.60;8.80;;;;;;;22.56;25.76;94701.25;4899251;28;103462;-48
2021/12/25 11:30:03;;;;;;;8.67;7.97;;;;;;;22.55;25.71;94695.16;4899003;28;103037;-47
2021/12/25 11:32:29;;;;;;;8.97;8.27;;;;;;;22.53;25.74;94681.38;4900154;28;102844;-47
2021/12/25 11:34:58;;;;;;;8.77;8.07;;;;;;;22.52;25.62;94685.91;4901225;28;103162;-47
2021/12/25 11:37:27;;;;;;;8.47;7.80;;;;;;;22.52;25.40;94682.47;4895355;28;103110;-47
2021/12/25 11:39:54;;;;;;;9.27;8.50;;;;;;;22.51;25.78;94678.25;4900084;28;102968;-47
2021/12/25 11:42:24;;;;;;;9.30;8.60;;;;;;;22.50;25.47;94677.44;4899775;28;102899;-47
2021/12/25 11:44:55;;;;;;;8.57;7.87;;;;;;;22.49;25.55;94675.88;4899145;28;103289;-47
2021/12/25 11:47:36;;;;;;;9.20;8.50;;;;;;;22.47;25.57;94678.06;4894660;28;103035;-47
2021/12/25 11:50:09;;;;;;;8.63;7.93;;;;;;;22.45;25.64;94666.94;4900875;28;103678;-47
2021/12/25 11:52:49;;;;;;;8.07;7.47;;;;;;;22.44;25.47;94657.38;4900029;28;102616;-47
2021/12/25 11:58:42;;;;;;;8.10;7.50;;;;;;;22.42;25.71;94653.47;4892755;28;102769;-48
2021/12/25 12:01:45;;;;;;;9.33;8.50;;;;;;;22.40;25.77;94658.31;4900377;28;103110;-48
2021/12/25 12:04:10;;;;;;;8.97;8.27;;;;;;;22.39;26.15;94654.88;4900736;28;102724;-47
2021/12/25 12:06:47;;;;;;;8.73;8.03;;;;;;;22.37;25.93;94662.41;4900963;28;103107;-47
2021/12/25 12:09:28;;;;;;;8.67;7.97;;;;;;;22.35;25.95;94663.81;4895868;28;103500;-47
2021/12/25 12:12:16;;;;;;;8.40;7.70;;;;;;;22.31;25.73;94670.81;4900882;28;103312;-47
2021/12/25 12:14:42;;;;;;;8.97;8.27;;;;;;;22.27;25.95;94662.66;4901003;28;102820;-47
2021/12/25 12:17:31;;;;;;;9.23;8.43;;;;;;;22.25;26.09;94669.41;4920087;28;102817;-47
2021/12/25 12:20:00;;;;;;;9.20;8.50;;;;;;;22.23;26.12;94661.72;4912959;28;102698;-47
2021/12/25 12:22:44;;;;;;;8.03;7.43;;;;;;;22.22;26.79;94657.50;4900374;28;102806;-47
2021/12/25 12:25:20;;;;;;;9.07;8.37;;;;;;;22.20;25.92;94662.34;4900335;28;102895;-47
2021/12/25 12:27:57;;;;;;;9.03;8.30;;;;;;;22.18;26.01;94649.34;4900303;28;102814;-47
2021/12/25 12:30:31;;;;;;;8.30;7.60;;;;;;;22.16;26.26;94650.75;4897287;28;103168;-47
2021/12/25 12:32:58;;;;;;;8.77;8.07;;;;;;;22.16;26.00;94666.69;4899904;28;102773;-47
2021/12/25 12:35:39;;;;;;;8.47;7.83;;;;;;;22.15;26.05;94670.47;4900018;28;103223;-47
2021/12/25 12:38:25;;;;;;;7.90;7.30;;;;;;;22.12;26.12;94671.84;4901277;28;102860;-48
2021/12/25 12:41:25;;;;;;;7.80;7.10;;;;;;;22.11;26.21;94667.63;4899964;28;103079;-48
2021/12/25 12:44:03;;;;;;;7.90;7.20;;;;;;;22.10;26.37;94663.41;4899185;28;104747;-48